createdAt,value
2023-03-22T06:25:34.658Z,3.20
2023-03-22T06:28:01.709Z,3.60
2023-03-22T06:30:28.464Z,3.67
2023-03-22T06:32:55.493Z,3.55
2023-03-22T06:35:22.130Z,3.50
2023-03-22T06:37:48.726Z,3.58
2023-03-22T06:40:20.213Z,2.85
2023-03-22T06:42:46.908Z,2.55
2023-03-22T06:45:16.503Z,2.92
2023-03-22T06:47:44.379Z,2.65
2023-03-22T06:50:11.511Z,2.97
2023-03-22T06:52:40.968Z,2.92
2023-03-22T06:55:11.074Z,3.50
2023-03-22T06:57:37.762Z,5.22
2023-03-22T07:00:05.374Z,5.32
2023-03-22T07:02:32.869Z,2.53
2023-03-22T07:04:59.478Z,2.35
2023-03-22T07:07:26.156Z,2.33
2023-03-22T07:09:53.440Z,2.50
2023-03-22T07:12:20.042Z,2.70
2023-03-22T07:14:46.742Z,5.35
2023-03-22T07:17:15.005Z,6.40
2023-03-22T07:19:42.875Z,2.65
2023-03-22T07:22:09.525Z,2.60
2023-03-22T07:24:44.584Z,2.40
2023-03-22T07:27:18.562Z,2.80
2023-03-22T07:29:45.489Z,3.00
2023-03-22T07:32:12.466Z,3.15
2023-03-22T07:34:39.204Z,3.17
2023-03-22T07:37:06.606Z,3.38
2023-03-22T07:39:33.373Z,2.90
2023-03-22T07:42:00.424Z,3.10
2023-03-22T07:44:27.913Z,4.35
2023-03-22T07:46:54.685Z,3.28
2023-03-22T07:49:21.460Z,3.50
2023-03-22T07:52:08.906Z,3.90
2023-03-22T07:54:35.531Z,3.67
2023-03-22T07:57:02.361Z,3.03
2023-03-22T07:59:29.977Z,2.92
2023-03-22T08:01:56.670Z,3.10
2023-03-22T08:04:23.396Z,2.83
2023-03-22T08:06:52.323Z,4.10
2023-03-22T08:09:18.933Z,3.65
2023-03-22T08:11:45.786Z,2.90
2023-03-22T08:14:12.552Z,3.08
2023-03-22T08:16:39.373Z,3.00
2023-03-22T08:19:06.137Z,2.08
2023-03-22T08:21:36.182Z,2.42
2023-03-22T08:24:06.379Z,2.95
2023-03-22T08:26:33.022Z,5.63
2023-03-22T08:28:59.847Z,2.67
2023-03-22T08:31:28.792Z,2.80
2023-03-22T08:33:55.466Z,3.97
2023-03-22T08:36:31.034Z,3.85
2023-03-22T08:39:02.684Z,3.60
2023-03-22T08:41:30.785Z,3.45
2023-03-22T08:44:00.359Z,2.83
2023-03-22T08:46:30.078Z,3.20
2023-03-22T08:49:00.379Z,2.25
2023-03-22T08:51:32.600Z,3.28
2023-03-22T08:54:00.262Z,1.98
2023-03-22T08:56:29.572Z,1.95
2023-03-22T08:58:59.444Z,2.00
2023-03-22T09:01:29.820Z,2.00
2023-03-22T09:03:59.292Z,2.13
2023-03-22T09:06:29.396Z,2.20
2023-03-22T09:08:56.773Z,1.42
2023-03-22T09:11:26.343Z,1.80
2023-03-22T09:13:52.923Z,1.40
2023-03-22T09:16:19.571Z,1.75
2023-03-22T09:18:47.411Z,1.70
2023-03-22T09:21:15.966Z,2.10
2023-03-22T09:23:48.444Z,1.90
2023-03-22T09:26:18.044Z,2.67
2023-03-22T09:28:48.594Z,1.88
2023-03-22T09:31:20.594Z,1.80
2023-03-22T09:33:52.278Z,1.58
2023-03-22T09:36:21.727Z,1.20
2023-03-22T09:38:50.010Z,1.35
2023-03-22T09:41:27.173Z,1.58
2023-03-22T09:44:02.689Z,1.70
2023-03-22T09:46:40.170Z,2.97
2023-03-22T09:49:22.645Z,1.95
2023-03-22T09:51:55.022Z,2.08
2023-03-22T09:54:34.444Z,1.75
2023-03-22T09:57:08.879Z,1.58
2023-03-22T10:00:12.601Z,1.75
2023-03-22T10:03:00.383Z,1.50
2023-03-22T10:05:37.302Z,1.58
2023-03-22T10:08:28.886Z,1.90
2023-03-22T10:11:01.353Z,1.30
2023-03-22T10:13:43.020Z,2.05
2023-03-22T10:16:16.672Z,1.50
2023-03-22T10:18:59.113Z,1.70
2023-03-22T10:21:26.492Z,1.95
2023-03-22T10:24:10.163Z,1.70
2023-03-22T10:26:51.534Z,1.33
2023-03-22T10:29:39.731Z,1.52
2023-03-22T10:32:16.843Z,2.00
2023-03-22T10:34:44.399Z,1.15
2023-03-22T10:37:21.215Z,1.40
2023-03-22T10:39:52.060Z,1.52
2023-03-22T10:42:25.914Z,1.80
2023-03-22T10:45:07.452Z,1.20
2023-03-22T10:47:42.770Z,2.22
2023-03-22T10:50:21.516Z,1.70
2023-03-22T10:53:08.096Z,2.10
2023-03-22T10:58:17.753Z,4.38
2023-03-22T11:00:53.588Z,7.57
2023-03-22T11:06:08.482Z,1.50
2023-03-22T11:09:01.648Z,2.33
2023-03-22T11:11:48.757Z,1.10
2023-03-22T11:14:49.823Z,1.67
2023-03-22T11:17:37.818Z,1.23
2023-03-22T11:20:13.977Z,1.00
2023-03-22T11:22:44.375Z,1.30
2023-03-22T11:25:21.059Z,2.67
2023-03-22T11:27:55.633Z,1.10
2023-03-22T11:30:29.988Z,2.55
2023-03-22T11:33:21.124Z,1.20
2023-03-22T11:36:01.924Z,4.10
2023-03-22T11:38:42.365Z,1.88
2023-03-22T11:41:20.160Z,1.50
2023-03-22T11:43:51.980Z,3.83
2023-03-22T11:46:19.936Z,1.45
2023-03-22T11:48:49.581Z,2.22
2023-03-22T11:51:26.613Z,1.20
2023-03-22T11:53:59.090Z,2.05
2023-03-22T11:56:29.216Z,1.10
2023-03-22T11:59:02.685Z,1.10
2023-03-22T12:02:07.026Z,1.75
2023-03-22T12:04:38.631Z,1.30
2023-03-22T12:07:14.963Z,0.90
2023-03-22T12:09:44.416Z,0.90
2023-03-22T12:12:19.316Z,0.73
2023-03-22T12:14:54.644Z,0.97
2023-03-22T12:17:31.674Z,1.20
2023-03-22T12:20:21.379Z,1.02
2023-03-22T12:22:54.597Z,1.42
2023-03-22T12:25:25.763Z,0.95
2023-03-22T12:27:59.625Z,1.67
2023-03-22T12:30:31.063Z,1.17
2023-03-22T12:33:26.507Z,1.10
2023-03-22T12:35:58.377Z,0.85
2023-03-22T12:38:35.585Z,1.10
2023-03-22T12:41:07.387Z,0.90
2023-03-22T12:43:44.550Z,0.90
2023-03-22T12:46:19.491Z,1.20
2023-03-22T12:48:50.957Z,1.60
2023-03-22T12:51:17.602Z,3.80
2023-03-22T12:53:48.415Z,2.30
2023-03-22T12:56:17.944Z,2.67
2023-03-22T12:58:52.319Z,2.00
2023-03-22T13:01:38.843Z,2.05
2023-03-22T13:06:59.693Z,1.70
2023-03-22T13:09:40.563Z,1.50
2023-03-22T13:12:19.629Z,1.40
2023-03-22T13:14:49.359Z,1.10
2023-03-22T13:17:36.515Z,1.30
2023-03-22T13:20:11.487Z,1.60
2023-03-22T13:22:39.840Z,1.60
2023-03-22T13:25:13.999Z,1.92
2023-03-22T13:27:56.988Z,2.00
2023-03-22T13:30:25.948Z,1.70
2023-03-22T13:33:10.778Z,1.30
2023-03-22T13:35:48.968Z,1.00
2023-03-22T13:38:28.734Z,1.10
2023-03-22T13:41:17.309Z,1.42
2023-03-22T13:43:50.388Z,0.98
2023-03-22T13:46:22.676Z,1.00
2023-03-22T13:48:52.899Z,0.93
2023-03-22T13:51:25.693Z,1.10
2023-03-22T13:53:56.956Z,0.90
2023-03-22T13:56:36.523Z,1.40
2023-03-22T13:59:05.844Z,1.30
2023-03-22T14:01:38.047Z,1.50
2023-03-22T14:04:11.565Z,1.70
2023-03-22T14:06:52.943Z,2.00
2023-03-22T14:09:35.973Z,1.90
